createdAt,value
2022-09-05T00:02:03.125Z,100.00
2022-09-05T00:04:42.303Z,100.00
2022-09-05T00:07:36.002Z,100.00
2022-09-05T00:10:13.394Z,100.00
2022-09-05T00:12:43.179Z,100.00
2022-09-05T00:15:43.641Z,100.00
2022-09-05T00:24:20.511Z,100.00
2022-09-05T00:24:27.482Z,100.00
2022-09-05T00:25:08.679Z,100.00
2022-09-05T00:28:26.186Z,100.00
2022-09-05T00:31:54.402Z,100.00
2022-09-05T00:34:16.815Z,100.00
2022-09-05T00:36:53.647Z,100.00
2022-09-05T00:39:25.676Z,100.00
2022-09-05T00:41:57.721Z,100.00
2022-09-05T00:44:29.827Z,100.00
2022-09-05T00:47:33.476Z,100.00
2022-09-05T00:50:06.612Z,100.00
2022-09-05T00:53:07.216Z,100.00
2022-09-05T00:56:02.747Z,100.00
2022-09-05T00:59:01.483Z,100.00
2022-09-05T01:01:37.386Z,100.00
2022-09-05T01:04:28.371Z,100.00
2022-09-05T01:07:24.621Z,100.00
2022-09-05T01:10:19.452Z,100.00
2022-09-05T01:13:13.418Z,100.00
2022-09-05T01:15:56.975Z,100.00
2022-09-05T01:18:56.100Z,100.00
2022-09-05T01:21:53.144Z,100.00
2022-09-05T01:25:07.534Z,100.00
2022-09-05T01:29:13.273Z,100.00
2022-09-05T01:31:04.717Z,100.00
2022-09-05T01:33:47.823Z,100.00
2022-09-05T01:36:37.128Z,100.00
2022-09-05T01:40:11.659Z,100.00
2022-09-05T01:42:05.030Z,100.00
2022-09-05T01:44:41.735Z,100.00
2022-09-05T01:47:29.482Z,100.00
2022-09-05T01:50:16.785Z,100.00
2022-09-05T01:53:02.705Z,100.00
2022-09-05T01:56:11.355Z,100.00
2022-09-05T01:59:08.264Z,100.00
2022-09-05T02:02:13.174Z,100.00
2022-09-05T02:05:02.039Z,100.00
2022-09-05T02:07:49.682Z,100.00
2022-09-05T02:10:50.873Z,100.00
2022-09-05T02:13:40.896Z,100.00
2022-09-05T02:16:42.062Z,100.00
2022-09-05T02:19:08.650Z,100.00
2022-09-05T02:21:57.033Z,100.00
2022-09-05T02:24:33.187Z,100.00
2022-09-05T02:28:03.568Z,100.00
2022-09-05T02:30:15.044Z,100.00
2022-09-05T02:32:53.493Z,100.00
2022-09-05T02:35:23.408Z,100.00
2022-09-05T02:40:18.947Z,100.00
2022-09-05T02:45:13.548Z,100.00
2022-09-05T02:45:13.852Z,100.00
2022-09-05T02:47:21.169Z,100.00
2022-09-05T02:54:35.664Z,100.00
2022-09-05T02:57:37.804Z,100.00
2022-09-05T02:57:39.946Z,100.00
2022-09-05T02:59:20.385Z,100.00
2022-09-05T03:02:25.663Z,100.00
2022-09-05T03:05:17.906Z,100.00
2022-09-05T03:07:54.152Z,100.00
2022-09-05T03:10:53.611Z,100.00
2022-09-05T03:13:55.546Z,100.00
2022-09-05T03:17:04.973Z,100.00
2022-09-05T03:19:56.534Z,100.00
2022-09-05T03:22:55.841Z,100.00
2022-09-05T03:25:57.986Z,100.00
2022-09-05T03:28:43.481Z,100.00
2022-09-05T03:31:35.003Z,100.00
2022-09-05T03:34:53.574Z,100.00
2022-09-05T03:37:38.932Z,100.00
2022-09-05T03:40:57.323Z,100.00
2022-09-05T03:43:30.931Z,100.00
2022-09-05T03:46:25.534Z,100.00
2022-09-05T03:52:06.506Z,100.00
2022-09-05T03:57:04.770Z,100.00
2022-09-05T03:57:23.304Z,100.00
2022-09-05T03:58:55.507Z,100.00
2022-09-05T04:02:54.194Z,100.00
2022-09-05T04:08:15.899Z,100.00
2022-09-05T04:08:24.734Z,100.00
2022-09-05T04:10:51.392Z,100.00
2022-09-05T04:13:24.585Z,100.00
2022-09-05T04:16:00.671Z,100.00
2022-09-05T04:18:36.271Z,100.00
2022-09-05T04:21:23.185Z,100.00
2022-09-05T04:24:22.820Z,100.00
2022-09-05T04:27:18.866Z,100.00
2022-09-05T04:30:01.016Z,100.00
2022-09-05T04:32:30.682Z,100.00
2022-09-05T04:35:50.265Z,100.00
2022-09-05T04:38:18.834Z,100.00
2022-09-05T04:40:58.316Z,100.00
2022-09-05T04:43:33.983Z,100.00
2022-09-05T04:46:19.466Z,100.00
2022-09-05T04:48:58.504Z,100.00
2022-09-05T04:51:39.428Z,100.00
2022-09-05T04:54:30.032Z,100.00
2022-09-05T04:57:21.754Z,100.00
2022-09-05T05:05:55.365Z,100.00
2022-09-05T05:06:09.583Z,100.00
2022-09-05T05:06:15.297Z,100.00
2022-09-05T05:08:42.781Z,100.00
2022-09-05T05:17:54.252Z,100.00
2022-09-05T05:17:56.909Z,100.00
2022-09-05T05:18:08.630Z,100.00
2022-09-05T05:20:54.042Z,100.00
2022-09-05T05:23:40.808Z,100.00
2022-09-05T05:26:13.247Z,100.00
2022-09-05T05:29:00.201Z,100.00
2022-09-05T05:31:30.633Z,100.00
2022-09-05T05:34:03.794Z,100.00
2022-09-05T05:36:40.486Z,100.00
2022-09-05T05:39:13.693Z,100.00
2022-09-05T05:41:46.461Z,100.00
2022-09-05T05:44:15.762Z,100.00
2022-09-05T05:46:47.652Z,100.00
2022-09-05T05:49:33.280Z,100.00
2022-09-05T05:52:13.699Z,100.00
2022-09-05T05:55:36.276Z,100.00
2022-09-05T05:57:58.358Z,100.00
2022-09-05T06:00:33.921Z,100.00
2022-09-05T06:03:29.406Z,100.00
2022-09-05T06:06:08.394Z,100.00
2022-09-05T06:14:52.022Z,100.00
2022-09-05T06:14:58.564Z,100.00
2022-09-05T06:15:10.751Z,100.00
2022-09-05T06:18:07.176Z,100.00
2022-09-05T06:22:11.030Z,100.00
2022-09-05T06:24:40.591Z,100.00
2022-09-05T06:28:01.640Z,100.00
2022-09-05T06:30:25.748Z,100.00
2022-09-05T06:33:07.705Z,100.00
2022-09-05T06:35:43.101Z,100.00
2022-09-05T06:38:51.962Z,100.00
2022-09-05T06:41:24.240Z,100.00
2022-09-05T06:44:15.503Z,100.00
2022-09-05T06:46:54.436Z,100.00
2022-09-05T06:50:27.209Z,100.00
2022-09-05T06:53:29.903Z,100.00
2022-09-05T06:55:59.208Z,100.00
2022-09-05T06:59:06.623Z,100.00
2022-09-05T07:02:00.805Z,100.00
2022-09-05T07:05:37.267Z,100.00
2022-09-05T07:08:13.670Z,100.00
2022-09-05T07:11:16.112Z,100.00
2022-09-05T07:14:05.535Z,100.00
2022-09-05T07:16:44.034Z,100.00
2022-09-05T07:19:14.231Z,100.00
2022-09-05T07:21:59.700Z,100.00
2022-09-05T07:24:53.379Z,100.00
2022-09-05T07:28:15.552Z,100.00
2022-09-05T07:30:27.348Z,100.00
2022-09-05T07:32:56.891Z,100.00
2022-09-05T07:35:29.220Z,100.00
2022-09-05T07:38:07.174Z,100.00
2022-09-05T07:40:39.790Z,100.00
2022-09-05T07:43:18.718Z,100.00
2022-09-05T07:46:02.561Z,100.00
2022-09-05T07:48:35.692Z,100.00
2022-09-05T07:54:21.940Z,100.00
2022-09-05T07:57:03.721Z,100.00
2022-09-05T08:00:05.925Z,100.00
2022-09-05T08:02:50.269Z,100.00
2022-09-05T08:05:35.293Z,100.00
2022-09-05T08:08:08.929Z,100.00
2022-09-05T08:11:23.403Z,100.00
2022-09-05T08:13:40.389Z,100.00
2022-09-05T08:16:10.764Z,100.00
2022-09-05T08:18:54.157Z,100.00
2022-09-05T08:21:52.430Z,100.00
2022-09-05T08:24:45.854Z,100.00
2022-09-05T08:27:24.230Z,100.00
2022-09-05T08:30:24.807Z,100.00
2022-09-05T08:33:10.313Z,100.00
2022-09-05T08:35:47.238Z,100.00
2022-09-05T08:38:15.464Z,100.00
2022-09-05T08:41:02.533Z,100.00
2022-09-05T08:46:36.772Z,100.00
2022-09-05T08:46:50.183Z,100.00
2022-09-05T08:49:36.447Z,100.00
2022-09-05T08:52:14.419Z,100.00
2022-09-05T08:55:05.712Z,100.00
2022-09-05T08:57:45.647Z,100.00
2022-09-05T09:00:20.839Z,100.00
2022-09-05T09:03:06.836Z,100.00
2022-09-05T09:06:13.239Z,100.00
2022-09-05T09:09:13.966Z,100.00
2022-09-05T09:12:09.727Z,100.00
2022-09-05T09:14:55.380Z,100.00
2022-09-05T09:17:42.797Z,100.00
2022-09-05T09:20:26.673Z,100.00
2022-09-05T09:22:59.576Z,100.00
2022-09-05T09:25:37.175Z,100.00
2022-09-05T09:28:49.856Z,100.00
2022-09-05T09:31:38.772Z,100.00
2022-09-05T09:34:23.971Z,100.00
2022-09-05T09:37:25.453Z,100.00
2022-09-05T09:40:34.702Z,100.00
2022-09-05T09:43:17.177Z,100.00
2022-09-05T09:46:09.826Z,97.59
2022-09-05T09:49:04.978Z,85.72
2022-09-05T09:52:06.983Z,82.61
2022-09-05T09:55:07.883Z,80.63
2022-09-05T09:58:05.571Z,69.79
2022-09-05T10:00:42.451Z,66.18
2022-09-05T10:10:04.403Z,63.75
2022-09-05T10:10:52.851Z,67.92
2022-09-05T10:11:08.800Z,64.26
2022-09-05T10:12:30.507Z,68.96
2022-09-05T10:15:30.896Z,67.17
2022-09-05T10:18:34.259Z,67.42
2022-09-05T10:21:33.465Z,62.62
2022-09-05T10:24:15.533Z,62.50
2022-09-05T10:27:04.315Z,63.95
2022-09-05T10:30:08.764Z,63.18
2022-09-05T10:35:13.893Z,62.08
2022-09-05T10:35:50.349Z,59.92
2022-09-05T10:38:38.336Z,59.11
2022-09-05T10:41:20.949Z,58.63
2022-09-05T10:44:02.195Z,58.45
2022-09-05T10:46:51.219Z,57.34
2022-09-05T10:49:30.121Z,56.53
2022-09-05T10:52:18.989Z,56.73
2022-09-05T10:55:14.081Z,58.36
2022-09-05T10:57:55.086Z,64.78
2022-09-05T11:02:23.586Z,64.55
2022-09-05T11:03:56.689Z,62.28
2022-09-05T11:06:46.711Z,59.96
2022-09-05T11:09:26.521Z,59.37
2022-09-05T11:12:16.117Z,65.17
2022-09-05T11:14:50.258Z,67.99
2022-09-05T11:17:29.641Z,60.90
2022-09-05T11:20:35.893Z,57.91
2022-09-05T11:23:15.124Z,59.59
2022-09-05T11:25:42.998Z,63.95
2022-09-05T11:28:14.980Z,61.40
2022-09-05T11:30:50.949Z,61.99
2022-09-05T11:39:51.961Z,66.17
2022-09-05T11:39:54.097Z,69.89
2022-09-05T11:40:32.538Z,76.19
2022-09-05T11:43:33.099Z,79.92
2022-09-05T11:46:09.835Z,79.37
2022-09-05T11:49:32.387Z,64.14
2022-09-05T11:52:01.851Z,61.29
2022-09-05T11:54:59.646Z,60.36
2022-09-05T11:57:44.446Z,60.71
2022-09-05T12:00:31.251Z,58.70
2022-09-05T12:03:57.469Z,58.08
2022-09-05T12:06:48.260Z,58.25
2022-09-05T12:09:25.928Z,68.99
2022-09-05T12:12:29.988Z,61.48
2022-09-05T12:15:27.425Z,56.68
2022-09-05T12:18:19.464Z,55.67
2022-09-05T12:21:25.450Z,54.92
2022-09-05T12:25:16.248Z,59.90
2022-09-05T12:27:40.098Z,54.68
2022-09-05T12:30:08.973Z,54.39
2022-09-05T12:35:30.325Z,52.99
2022-09-05T12:36:10.872Z,53.13
2022-09-05T12:40:58.463Z,53.94
2022-09-05T12:42:14.632Z,52.90
2022-09-05T12:45:03.363Z,55.50
2022-09-05T12:47:31.651Z,58.35
2022-09-05T12:50:19.051Z,54.41
2022-09-05T12:52:50.662Z,55.92
2022-09-05T12:55:25.932Z,52.83
2022-09-05T13:02:59.165Z,54.87
2022-09-05T13:03:13.667Z,55.42
2022-09-05T13:04:05.969Z,56.72
2022-09-05T13:06:36.525Z,55.42
2022-09-05T13:12:30.642Z,54.47
2022-09-05T13:14:48.530Z,54.56
2022-09-05T13:15:23.411Z,50.57
2022-09-05T13:17:53.750Z,50.12
2022-09-05T13:20:35.627Z,51.59
2022-09-05T13:23:13.924Z,56.19
2022-09-05T13:25:44.100Z,55.64
2022-09-05T13:28:14.459Z,57.70
2022-09-05T13:36:51.523Z,58.67
2022-09-05T13:38:16.419Z,61.08
2022-09-05T13:39:13.889Z,65.13
2022-09-05T13:41:49.356Z,65.89
2022-09-05T13:44:27.625Z,61.14
2022-09-05T13:47:29.559Z,61.81
2022-09-05T13:50:19.189Z,60.23
2022-09-05T13:53:18.797Z,59.19
2022-09-05T13:55:54.036Z,59.49
2022-09-05T13:58:42.817Z,58.17
2022-09-05T14:02:02.976Z,60.02
2022-09-05T14:05:06.654Z,55.60
2022-09-05T14:07:51.729Z,59.12
2022-09-05T14:10:51.747Z,60.64
2022-09-05T14:13:39.847Z,59.33
2022-09-05T14:16:15.956Z,54.77
2022-09-05T14:19:05.998Z,55.05
2022-09-05T14:21:37.176Z,51.42
2022-09-05T14:24:28.429Z,50.03
2022-09-05T14:26:58.893Z,50.29
2022-09-05T14:29:40.167Z,50.82
2022-09-05T14:37:44.631Z,50.58
2022-09-05T14:37:53.123Z,54.08
2022-09-05T14:38:14.631Z,53.39
2022-09-05T14:40:49.693Z,58.53
2022-09-05T14:43:37.578Z,52.83
2022-09-05T14:46:24.044Z,55.55
2022-09-05T14:49:10.664Z,58.07
2022-09-05T14:51:40.233Z,52.04
2022-09-05T15:01:58.113Z,52.56
2022-09-05T15:02:49.022Z,53.87
2022-09-05T15:03:04.911Z,57.75
2022-09-05T15:05:40.894Z,53.59
2022-09-05T15:08:50.074Z,56.87
2022-09-05T15:12:23.793Z,59.61
2022-09-05T15:13:58.506Z,60.43
2022-09-05T15:16:25.845Z,61.37
2022-09-05T15:18:53.279Z,62.69
2022-09-05T15:21:35.293Z,58.41
2022-09-05T15:24:14.751Z,57.33
2022-09-05T15:27:16.143Z,61.90
2022-09-05T15:29:54.752Z,61.12
2022-09-05T15:32:27.932Z,63.98
2022-09-05T15:34:57.791Z,66.18
2022-09-05T15:37:36.010Z,65.70
2022-09-05T15:40:21.960Z,65.91
2022-09-05T15:42:58.901Z,64.41
2022-09-05T15:45:29.139Z,65.80
2022-09-05T15:48:06.383Z,62.30
2022-09-05T15:50:43.341Z,65.99
2022-09-05T15:53:13.217Z,66.57
2022-09-05T15:55:50.395Z,66.11
2022-09-05T15:58:26.783Z,66.40
2022-09-05T16:01:17.064Z,67.29
2022-09-05T16:08:19.673Z,67.30
2022-09-05T16:10:36.493Z,67.72
2022-09-05T16:10:39.233Z,65.28
2022-09-05T16:12:43.047Z,65.31
2022-09-05T16:17:35.044Z,66.94
2022-09-05T16:23:32.027Z,68.13
2022-09-05T16:23:32.504Z,71.54
2022-09-05T16:24:04.808Z,67.92
2022-09-05T16:26:38.462Z,64.77
2022-09-05T16:29:25.520Z,64.32
2022-09-05T16:31:59.214Z,68.02
2022-09-05T16:34:46.093Z,69.40
2022-09-05T16:37:24.028Z,64.72
2022-09-05T16:40:06.459Z,65.88
2022-09-05T16:42:46.894Z,67.74
2022-09-05T16:45:27.970Z,67.85
2022-09-05T16:48:02.753Z,68.34
2022-09-05T16:50:50.420Z,71.53
2022-09-05T16:53:37.671Z,71.69
2022-09-05T16:56:34.426Z,71.28
2022-09-05T16:59:08.622Z,72.03
2022-09-05T17:02:06.386Z,72.96
2022-09-05T17:05:04.365Z,75.06
2022-09-05T17:07:47.409Z,75.36
2022-09-05T17:10:19.977Z,74.04
2022-09-05T17:12:54.543Z,70.69
2022-09-05T17:15:38.209Z,71.13
2022-09-05T17:18:25.972Z,73.26
2022-09-05T17:20:59.254Z,74.33
2022-09-05T17:29:15.903Z,79.02
2022-09-05T17:29:46.907Z,79.98
2022-09-05T17:32:47.602Z,81.30
2022-09-05T17:35:52.600Z,84.92
2022-09-05T17:38:48.317Z,86.54
2022-09-05T17:41:29.298Z,87.12
2022-09-05T17:44:18.280Z,86.64
2022-09-05T17:47:14.613Z,86.98
2022-09-05T17:49:45.456Z,83.43
2022-09-05T17:52:16.399Z,82.26
2022-09-05T17:54:49.992Z,82.59
2022-09-05T17:57:35.124Z,83.32
2022-09-05T18:00:40.450Z,83.76
2022-09-05T18:03:07.328Z,82.83
2022-09-05T18:05:56.775Z,84.58
2022-09-05T18:08:49.142Z,89.33
2022-09-05T18:11:25.515Z,88.18
2022-09-05T18:14:05.020Z,87.22
2022-09-05T18:19:34.594Z,86.76
2022-09-05T18:22:06.381Z,87.82
2022-09-05T18:25:00.423Z,89.04
2022-09-05T18:28:04.416Z,90.27
2022-09-05T18:33:54.066Z,91.32
2022-09-05T18:35:57.864Z,92.85
2022-09-05T18:38:51.050Z,94.21
2022-09-05T18:41:24.815Z,93.95
2022-09-05T18:44:21.117Z,88.56
2022-09-05T18:46:52.451Z,91.87
2022-09-05T18:50:24.022Z,96.23
2022-09-05T18:52:23.872Z,97.66
2022-09-05T18:55:49.494Z,99.36
2022-09-05T18:57:59.020Z,99.80
2022-09-05T19:00:44.792Z,100.00
2022-09-05T19:03:29.880Z,100.00
2022-09-05T19:06:34.712Z,100.00
2022-09-05T19:09:05.145Z,100.00
2022-09-05T19:11:53.926Z,100.00
2022-09-05T19:14:34.154Z,100.00
2022-09-05T19:17:07.423Z,100.00
2022-09-05T19:20:31.445Z,100.00
2022-09-05T19:23:11.607Z,100.00
2022-09-05T19:25:45.534Z,100.00
2022-09-05T19:34:35.042Z,100.00
2022-09-05T19:36:51.436Z,100.00
2022-09-05T19:37:23.672Z,100.00
2022-09-05T19:37:29.024Z,100.00
2022-09-05T19:44:09.001Z,100.00
2022-09-05T19:47:37.193Z,100.00
2022-09-05T19:47:47.527Z,100.00
2022-09-05T19:51:16.552Z,100.00
2022-09-05T19:54:04.149Z,100.00
2022-09-05T19:56:56.456Z,100.00
2022-09-05T19:59:38.000Z,100.00
2022-09-05T20:02:10.776Z,100.00
2022-09-05T20:04:52.951Z,100.00
2022-09-05T20:07:28.146Z,100.00
2022-09-05T20:09:56.540Z,100.00
2022-09-05T20:12:34.326Z,100.00
2022-09-05T20:15:35.885Z,100.00
2022-09-05T20:18:20.255Z,100.00
2022-09-05T20:21:04.991Z,100.00
2022-09-05T20:23:32.677Z,100.00
2022-09-05T20:26:00.844Z,100.00
2022-09-05T20:28:35.771Z,100.00
2022-09-05T20:31:08.386Z,100.00
2022-09-05T20:34:40.712Z,100.00
2022-09-05T20:43:08.621Z,100.00
2022-09-05T20:43:15.900Z,100.00
2022-09-05T20:43:30.868Z,100.00
2022-09-05T20:46:00.809Z,100.00
2022-09-05T20:54:09.449Z,100.00
2022-09-05T20:54:14.083Z,100.00
2022-09-05T20:54:34.646Z,100.00
2022-09-05T20:57:18.615Z,100.00
2022-09-05T20:59:47.189Z,100.00
2022-09-05T21:02:27.256Z,100.00
2022-09-05T21:05:20.787Z,100.00
2022-09-05T21:08:01.106Z,100.00
2022-09-05T21:10:55.714Z,100.00
2022-09-05T21:13:29.380Z,100.00
2022-09-05T21:15:56.260Z,100.00
2022-09-05T21:18:33.393Z,100.00
2022-09-05T21:21:28.960Z,100.00
2022-09-05T21:24:22.562Z,100.00
2022-09-05T21:26:49.988Z,100.00
2022-09-05T21:29:27.238Z,100.00
2022-09-05T21:32:01.670Z,100.00
2022-09-05T21:34:34.313Z,100.00
2022-09-05T21:37:06.633Z,100.00
2022-09-05T21:39:42.898Z,100.00
2022-09-05T21:44:07.377Z,100.00
2022-09-05T21:47:46.944Z,100.00
2022-09-05T21:48:00.622Z,100.00
2022-09-05T21:50:30.594Z,100.00
2022-09-05T21:53:13.217Z,100.00
2022-09-05T21:59:24.360Z,100.00
2022-09-05T21:59:27.970Z,100.00
2022-09-05T22:01:51.472Z,100.00
2022-09-05T22:04:13.550Z,100.00
2022-09-05T22:06:40.212Z,100.00
2022-09-05T22:09:13.045Z,100.00
2022-09-05T22:11:41.160Z,100.00
2022-09-05T22:14:09.015Z,100.00
2022-09-05T22:16:41.319Z,100.00
2022-09-05T22:19:22.503Z,100.00
2022-09-05T22:21:52.913Z,100.00
2022-09-05T22:24:21.423Z,100.00
2022-09-05T22:27:12.275Z,100.00
2022-09-05T22:29:40.250Z,100.00
2022-09-05T22:32:07.324Z,100.00
2022-09-05T22:34:34.159Z,100.00
2022-09-05T22:37:00.780Z,100.00
2022-09-05T22:39:37.913Z,100.00
2022-09-05T22:42:10.372Z,100.00
2022-09-05T22:44:39.272Z,100.00
2022-09-05T22:47:08.805Z,100.00
2022-09-05T22:49:36.544Z,100.00
2022-09-05T22:52:05.013Z,100.00
2022-09-05T22:54:31.774Z,100.00
2022-09-05T22:56:58.390Z,100.00
2022-09-05T22:59:25.118Z,100.00
2022-09-05T23:01:51.826Z,100.00
2022-09-05T23:04:18.708Z,100.00
2022-09-05T23:06:45.357Z,100.00
2022-09-05T23:09:12.092Z,100.00
2022-09-05T23:11:38.893Z,100.00
2022-09-05T23:14:05.579Z,100.00
2022-09-05T23:16:32.239Z,100.00
2022-09-05T23:18:58.840Z,100.00
2022-09-05T23:21:25.404Z,100.00
2022-09-05T23:23:52.057Z,100.00
2022-09-05T23:26:18.777Z,100.00
2022-09-05T23:28:45.473Z,100.00
2022-09-05T23:31:12.612Z,100.00
2022-09-05T23:33:41.777Z,100.00
2022-09-05T23:36:11.065Z,100.00
2022-09-05T23:38:37.877Z,100.00
2022-09-05T23:41:07.164Z,100.00
2022-09-05T23:43:34.582Z,100.00
2022-09-05T23:46:01.713Z,100.00
2022-09-05T23:48:29.091Z,100.00
2022-09-05T23:50:55.989Z,100.00
2022-09-05T23:53:23.274Z,100.00
2022-09-05T23:55:50.079Z,100.00
2022-09-05T23:58:17.020Z,100.00
